createdAt,value
2023-04-11T00:01:54.555Z,31.60
2023-04-11T00:04:22.968Z,35.30
2023-04-11T00:06:50.448Z,33.22
2023-04-11T00:09:17.986Z,33.85
2023-04-11T00:11:45.774Z,36.20
2023-04-11T00:14:13.194Z,34.22
2023-04-11T00:16:41.556Z,34.97
2023-04-11T00:19:12.274Z,34.67
2023-04-11T00:21:40.207Z,33.67
2023-04-11T00:24:08.336Z,36.13
2023-04-11T00:26:36.036Z,34.80
2023-04-11T00:29:03.419Z,33.63
2023-04-11T00:31:30.860Z,33.13
2023-04-11T00:33:58.550Z,32.00
2023-04-11T00:36:27.143Z,33.92
2023-04-11T00:38:55.178Z,32.58
2023-04-11T00:41:24.288Z,35.40
2023-04-11T00:43:51.666Z,34.50
2023-04-11T00:46:19.113Z,33.53
2023-04-11T00:48:48.931Z,31.95
2023-04-11T00:51:16.942Z,34.80
2023-04-11T00:53:45.730Z,31.70
2023-04-11T00:56:13.481Z,31.98
2023-04-11T00:58:41.230Z,30.17
2023-04-11T01:01:11.905Z,31.20
2023-04-11T01:03:40.072Z,29.45
2023-04-11T01:06:13.226Z,31.08
2023-04-11T01:08:42.492Z,29.95
2023-04-11T01:11:12.840Z,30.10
2023-04-11T01:13:40.812Z,28.77
2023-04-11T01:16:10.076Z,29.52
2023-04-11T01:18:37.765Z,27.42
2023-04-11T01:21:05.416Z,26.27
2023-04-11T01:23:34.314Z,25.52
2023-04-11T01:26:01.819Z,26.45
2023-04-11T01:28:29.301Z,26.42
2023-04-11T01:30:57.850Z,29.10
2023-04-11T01:33:25.348Z,27.08
2023-04-11T01:35:52.808Z,26.45
2023-04-11T01:38:21.263Z,26.50
2023-04-11T01:40:48.881Z,25.55
2023-04-11T01:43:16.438Z,26.98
2023-04-11T01:45:44.283Z,25.62
2023-04-11T01:48:11.792Z,26.00
2023-04-11T01:50:39.164Z,26.95
2023-04-11T01:53:06.822Z,26.35
2023-04-11T01:55:34.210Z,26.15
2023-04-11T01:58:01.611Z,29.02
2023-04-11T02:00:29.352Z,25.20
2023-04-11T02:02:57.350Z,27.90
2023-04-11T02:05:24.837Z,30.45
2023-04-11T02:07:52.207Z,31.23
2023-04-11T02:10:21.959Z,29.80
2023-04-11T02:12:49.398Z,31.40
2023-04-11T02:15:16.827Z,29.30
2023-04-11T02:17:45.417Z,28.35
2023-04-11T02:20:13.606Z,29.33
2023-04-11T02:22:41.675Z,26.23
2023-04-11T02:25:09.180Z,26.27
2023-04-11T02:27:36.980Z,27.30
2023-04-11T02:30:07.745Z,26.77
2023-04-11T02:32:35.995Z,28.70
2023-04-11T02:35:05.080Z,24.90
2023-04-11T02:37:32.515Z,26.15
2023-04-11T02:39:59.916Z,26.45
2023-04-11T02:42:27.832Z,27.00
2023-04-11T02:44:55.733Z,29.00
2023-04-11T02:47:26.788Z,27.02
2023-04-11T02:49:55.138Z,32.50
2023-04-11T02:52:23.805Z,29.58
2023-04-11T02:54:51.549Z,31.12
2023-04-11T02:57:19.208Z,31.60
2023-04-11T02:59:46.632Z,30.98
2023-04-11T03:02:15.790Z,33.08
2023-04-11T03:04:43.521Z,30.98
2023-04-11T03:07:12.605Z,28.17
2023-04-11T03:09:40.226Z,30.88
2023-04-11T03:12:07.954Z,27.05
2023-04-11T03:14:35.931Z,27.83
2023-04-11T03:17:03.321Z,32.45
2023-04-11T03:19:32.347Z,29.37
2023-04-11T03:22:01.542Z,30.33
2023-04-11T03:24:28.983Z,29.10
2023-04-11T03:26:57.745Z,32.35
2023-04-11T03:29:25.288Z,32.28
2023-04-11T03:31:53.073Z,32.03
2023-04-11T03:34:21.987Z,34.45
2023-04-11T03:36:51.582Z,30.20
2023-04-11T03:39:22.034Z,31.95
2023-04-11T03:41:50.006Z,30.88
2023-04-11T03:44:17.677Z,29.92
2023-04-11T03:46:46.022Z,30.75
2023-04-11T03:49:13.743Z,30.17
2023-04-11T03:51:41.591Z,30.00
2023-04-11T03:54:09.276Z,31.70
2023-04-11T03:56:37.056Z,30.20
2023-04-11T03:59:05.005Z,29.17
2023-04-11T04:01:33.933Z,29.65
2023-04-11T04:04:02.079Z,29.65
2023-04-11T04:06:30.448Z,30.70
2023-04-11T04:08:59.799Z,28.80
2023-04-11T04:11:29.648Z,32.08
2023-04-11T04:13:57.493Z,29.92
2023-04-11T04:16:25.494Z,32.80
2023-04-11T04:18:53.598Z,31.52
2023-04-11T04:21:21.795Z,31.62
2023-04-11T04:23:51.287Z,31.17
2023-04-11T04:26:25.212Z,35.17
2023-04-11T04:28:54.030Z,36.05
2023-04-11T04:31:25.804Z,34.83
2023-04-11T04:33:58.608Z,31.90
2023-04-11T04:36:26.416Z,33.45
2023-04-11T04:38:56.401Z,37.10
2023-04-11T04:41:23.988Z,37.70
2023-04-11T04:43:58.324Z,40.63
2023-04-11T04:46:26.824Z,37.90
2023-04-11T04:48:54.589Z,40.63
2023-04-11T04:51:22.486Z,36.80
2023-04-11T04:53:50.897Z,37.35
2023-04-11T04:56:19.090Z,35.92
2023-04-11T04:58:47.408Z,35.67
2023-04-11T05:01:16.594Z,34.88
2023-04-11T05:03:46.779Z,32.90
2023-04-11T05:06:14.862Z,33.13
2023-04-11T05:08:43.888Z,28.80
2023-04-11T05:11:11.996Z,31.25
2023-04-11T05:13:39.390Z,27.20
2023-04-11T05:16:07.864Z,28.17
2023-04-11T05:18:36.001Z,30.92
2023-04-11T05:21:05.214Z,33.15
2023-04-11T05:23:33.455Z,35.58
2023-04-11T05:26:01.728Z,32.55
2023-04-11T05:28:31.574Z,32.33
2023-04-11T05:30:59.068Z,30.83
2023-04-11T05:33:27.163Z,33.83
2023-04-11T05:35:55.659Z,36.95
2023-04-11T05:38:24.193Z,37.50
2023-04-11T05:40:52.216Z,35.38
2023-04-11T05:43:19.990Z,34.92
2023-04-11T05:45:48.111Z,32.67
2023-04-11T05:48:19.684Z,33.22
2023-04-11T05:50:48.319Z,29.17
2023-04-11T05:53:15.730Z,32.28
2023-04-11T05:55:44.390Z,30.00
2023-04-11T05:58:11.794Z,30.52
2023-04-11T06:00:39.222Z,29.52
2023-04-11T06:03:08.001Z,31.87
2023-04-11T06:05:36.182Z,28.08
2023-04-11T06:08:05.535Z,29.80
2023-04-11T06:10:33.243Z,33.78
2023-04-11T06:13:09.515Z,26.55
2023-04-11T06:15:38.183Z,29.83
2023-04-11T06:18:05.717Z,27.85
2023-04-11T06:20:33.154Z,27.90
2023-04-11T06:23:01.758Z,27.80
2023-04-11T06:25:29.153Z,28.48
2023-04-11T06:27:57.304Z,34.63
2023-04-11T06:30:25.356Z,28.62
2023-04-11T06:32:52.913Z,31.00
2023-04-11T06:35:24.766Z,28.77
2023-04-11T06:37:52.444Z,27.08
2023-04-11T06:40:20.559Z,27.67
2023-04-11T06:42:48.003Z,26.83
2023-04-11T06:45:16.285Z,26.37
2023-04-11T06:47:43.758Z,25.88
2023-04-11T06:50:11.341Z,24.77
2023-04-11T06:52:38.968Z,25.70
2023-04-11T06:55:07.228Z,22.35
2023-04-11T06:57:34.972Z,16.25
2023-04-11T07:00:04.808Z,22.48
2023-04-11T07:02:32.434Z,21.45
2023-04-11T07:04:59.991Z,21.45
2023-04-11T07:07:27.702Z,21.50
2023-04-11T07:09:55.133Z,23.00
2023-04-11T07:12:24.599Z,22.05
2023-04-11T07:14:52.343Z,22.73
2023-04-11T07:17:19.764Z,23.45
2023-04-11T07:19:47.106Z,22.13
2023-04-11T07:22:14.787Z,24.87
2023-04-11T07:24:43.601Z,23.17
2023-04-11T07:27:14.002Z,29.77
2023-04-11T07:29:41.696Z,28.73
2023-04-11T07:32:09.128Z,25.80
2023-04-11T07:34:36.705Z,27.83
2023-04-11T07:37:05.360Z,28.38
2023-04-11T07:39:33.325Z,31.08
2023-04-11T07:42:01.876Z,28.80
2023-04-11T07:44:29.574Z,25.60
2023-04-11T07:46:57.021Z,26.75
2023-04-11T07:49:24.414Z,30.33
2023-04-11T07:51:52.132Z,27.35
2023-04-11T07:54:25.078Z,31.60
2023-04-11T07:56:52.795Z,25.58
2023-04-11T07:59:20.224Z,25.77
2023-04-11T08:01:47.705Z,29.17
2023-04-11T08:04:15.890Z,26.33
2023-04-11T08:06:44.413Z,27.17
2023-04-11T08:09:12.616Z,24.40
2023-04-11T08:11:40.815Z,25.00
2023-04-11T08:14:08.639Z,24.00
2023-04-11T08:16:36.444Z,25.37
2023-04-11T08:19:04.353Z,25.85
2023-04-11T08:21:32.001Z,30.35
2023-04-11T08:23:59.542Z,27.55
2023-04-11T08:26:27.216Z,31.67
2023-04-11T08:28:54.550Z,30.25
2023-04-11T08:31:22.118Z,29.58
2023-04-11T08:33:50.365Z,35.08
2023-04-11T08:36:17.861Z,28.73
2023-04-11T08:38:45.319Z,31.75
2023-04-11T08:41:12.962Z,32.22
2023-04-11T08:43:40.435Z,38.75
2023-04-11T08:46:08.432Z,31.87
2023-04-11T08:48:36.238Z,32.58
2023-04-11T08:51:03.920Z,31.08
2023-04-11T08:53:31.731Z,31.45
2023-04-11T08:55:59.986Z,31.12
2023-04-11T08:58:27.457Z,36.72
2023-04-11T09:00:54.863Z,37.83
2023-04-11T09:03:22.654Z,32.78
2023-04-11T09:05:50.315Z,35.03
2023-04-11T09:08:17.830Z,33.00
2023-04-11T09:10:46.125Z,31.90
2023-04-11T09:13:24.878Z,36.50
2023-04-11T09:16:09.262Z,34.78
2023-04-11T09:18:41.191Z,33.17
2023-04-11T09:21:11.147Z,34.92
2023-04-11T09:23:39.032Z,41.15
2023-04-11T09:26:08.305Z,32.92
2023-04-11T09:28:50.675Z,35.30
2023-04-11T09:31:18.299Z,36.10
2023-04-11T09:33:54.649Z,33.60
2023-04-11T09:36:23.966Z,29.45
2023-04-11T09:38:52.715Z,30.70
2023-04-11T09:41:38.773Z,32.42
2023-04-11T09:44:07.454Z,26.15
2023-04-11T09:46:35.078Z,29.05
2023-04-11T09:49:02.739Z,23.58
2023-04-11T09:51:35.833Z,27.98
2023-04-11T09:54:06.049Z,25.90
2023-04-11T09:56:37.128Z,26.98
2023-04-11T09:59:05.321Z,30.02
2023-04-11T10:01:33.337Z,33.85
2023-04-11T10:04:01.522Z,30.25
2023-04-11T10:06:41.957Z,29.65
2023-04-11T10:09:13.473Z,28.92
2023-04-11T10:11:45.088Z,32.28
2023-04-11T10:14:37.461Z,27.62
2023-04-11T10:17:22.740Z,30.17
2023-04-11T10:19:57.186Z,32.80
2023-04-11T10:22:43.527Z,29.17
2023-04-11T10:25:24.748Z,25.60
2023-04-11T10:27:54.626Z,23.95
2023-04-11T10:30:40.543Z,24.95
2023-04-11T10:33:12.652Z,31.10
2023-04-11T10:35:58.236Z,28.25
2023-04-11T10:38:41.242Z,28.92
2023-04-11T10:41:19.356Z,28.08
2023-04-11T10:43:47.278Z,29.02
2023-04-11T10:46:19.533Z,32.08
2023-04-11T10:49:00.218Z,24.45
2023-04-11T10:51:30.500Z,27.95
2023-04-11T10:54:02.603Z,27.23
2023-04-11T10:56:42.888Z,26.73
2023-04-11T10:59:32.228Z,22.67
2023-04-11T11:02:01.711Z,23.70
2023-04-11T11:04:36.937Z,21.15
2023-04-11T11:07:06.706Z,27.17
2023-04-11T11:09:34.913Z,20.33
2023-04-11T11:12:06.552Z,19.75
2023-04-11T11:14:34.370Z,20.20
2023-04-11T11:17:03.197Z,19.87
2023-04-11T11:19:31.547Z,19.95
2023-04-11T11:22:08.061Z,19.58
2023-04-11T11:24:35.522Z,20.52
2023-04-11T11:27:03.278Z,20.75
2023-04-11T11:29:33.931Z,20.85
2023-04-11T11:32:03.899Z,20.98
2023-04-11T11:34:34.839Z,23.05
2023-04-11T11:37:06.500Z,25.23
2023-04-11T11:39:34.752Z,22.33
2023-04-11T11:42:02.359Z,24.52
2023-04-11T11:44:31.180Z,21.98
2023-04-11T11:47:03.202Z,27.67
2023-04-11T11:49:49.993Z,25.02
2023-04-11T11:52:33.961Z,23.58
2023-04-11T11:55:03.282Z,19.30
2023-04-11T11:57:31.312Z,18.80
2023-04-11T12:00:01.288Z,22.23
2023-04-11T12:02:28.955Z,19.60
2023-04-11T12:05:00.296Z,21.17
2023-04-11T12:07:32.633Z,20.88
2023-04-11T12:10:01.674Z,20.80
2023-04-11T12:12:37.371Z,20.30
2023-04-11T12:15:16.859Z,22.85
2023-04-11T12:17:49.554Z,19.87
2023-04-11T12:20:18.123Z,20.95
2023-04-11T12:22:45.725Z,22.73
2023-04-11T12:25:14.525Z,20.27
2023-04-11T12:27:43.517Z,25.50
2023-04-11T12:30:12.480Z,19.83
2023-04-11T12:32:39.885Z,20.05
2023-04-11T12:35:08.005Z,20.33
2023-04-11T12:37:35.516Z,19.27
2023-04-11T12:40:09.325Z,21.70
2023-04-11T12:42:45.714Z,17.73
2023-04-11T12:45:20.887Z,14.85
2023-04-11T12:47:48.649Z,13.00
2023-04-11T12:50:16.109Z,12.27
2023-04-11T12:52:43.601Z,12.65
2023-04-11T12:55:12.545Z,13.02
2023-04-11T12:57:40.086Z,11.70
2023-04-11T13:00:10.871Z,11.73
2023-04-11T13:02:43.871Z,13.18
2023-04-11T13:05:15.248Z,12.37
2023-04-11T13:07:45.203Z,11.12
2023-04-11T13:10:16.625Z,13.40
2023-04-11T13:12:45.630Z,12.00
2023-04-11T13:15:15.079Z,10.40
2023-04-11T13:17:42.796Z,10.55
2023-04-11T13:20:11.164Z,11.30
2023-04-11T13:22:41.596Z,12.43
2023-04-11T13:25:09.689Z,12.80
2023-04-11T13:27:39.409Z,11.90
2023-04-11T13:30:08.263Z,11.63
2023-04-11T13:32:36.211Z,10.63
2023-04-11T13:35:04.205Z,11.90
2023-04-11T13:37:31.646Z,10.55
2023-04-11T13:39:59.093Z,11.10
2023-04-11T13:42:26.719Z,13.52
2023-04-11T13:44:54.164Z,15.45
2023-04-11T13:47:21.567Z,13.68
2023-04-11T13:49:49.231Z,9.88
2023-04-11T13:52:16.659Z,15.25
2023-04-11T13:54:44.027Z,11.15
2023-04-11T13:57:11.753Z,12.65
2023-04-11T13:59:39.144Z,10.45
2023-04-11T14:02:07.138Z,12.68
2023-04-11T14:04:34.927Z,9.77
2023-04-11T14:07:02.428Z,10.75
2023-04-11T14:09:29.824Z,11.02
2023-04-11T14:11:57.745Z,10.70
2023-04-11T14:14:25.129Z,8.68
2023-04-11T14:16:52.501Z,7.80
2023-04-11T14:19:22.571Z,9.57
2023-04-11T14:21:51.281Z,8.25
2023-04-11T14:24:21.930Z,7.80
2023-04-11T14:26:50.221Z,8.73
2023-04-11T14:29:17.747Z,10.07
2023-04-11T14:31:45.273Z,9.68
2023-04-11T14:34:13.075Z,8.85
2023-04-11T14:36:40.445Z,11.20
2023-04-11T14:39:08.189Z,11.32
2023-04-11T14:41:36.210Z,9.43
2023-04-11T14:44:03.800Z,9.15
2023-04-11T14:46:31.314Z,9.25
2023-04-11T14:48:58.995Z,10.65
2023-04-11T14:51:28.816Z,14.18
2023-04-11T14:53:56.645Z,12.55
2023-04-11T14:56:24.701Z,21.87
2023-04-11T14:58:52.735Z,12.25
2023-04-11T15:01:20.263Z,13.60
2023-04-11T15:03:48.929Z,13.23
2023-04-11T15:06:16.389Z,20.27
2023-04-11T15:08:44.829Z,18.92
2023-04-11T15:11:12.513Z,16.37
2023-04-11T15:13:40.848Z,15.40
2023-04-11T15:16:08.579Z,14.45
2023-04-11T15:18:36.213Z,18.50
2023-04-11T15:21:03.780Z,16.20
2023-04-11T15:23:31.665Z,16.95
2023-04-11T15:26:01.556Z,17.62
2023-04-11T15:28:34.238Z,18.27
2023-04-11T15:31:02.647Z,19.95
2023-04-11T15:33:31.619Z,18.42
2023-04-11T15:36:00.410Z,18.90
2023-04-11T15:38:28.641Z,21.10
2023-04-11T15:40:59.775Z,24.58
2023-04-11T15:43:27.757Z,22.50
2023-04-11T15:45:55.454Z,19.60
2023-04-11T15:48:22.830Z,23.05
2023-04-11T15:50:51.164Z,28.20
2023-04-11T15:53:19.041Z,27.67
2023-04-11T15:55:47.259Z,24.37
2023-04-11T15:58:16.296Z,26.87
2023-04-11T16:00:44.762Z,25.08
2023-04-11T16:03:13.236Z,23.10
2023-04-11T16:05:43.135Z,22.60
2023-04-11T16:08:11.037Z,22.58
2023-04-11T16:10:38.692Z,20.83
2023-04-11T16:13:06.123Z,20.30
2023-04-11T16:15:33.556Z,21.62
2023-04-11T16:18:01.358Z,17.85
2023-04-11T16:20:28.958Z,16.58
2023-04-11T16:22:57.390Z,15.98
2023-04-11T16:25:25.349Z,16.05
2023-04-11T16:27:52.992Z,17.75
2023-04-11T16:30:20.505Z,16.62
2023-04-11T16:32:48.216Z,15.93
2023-04-11T16:35:15.716Z,14.77
2023-04-11T16:37:43.111Z,14.05
2023-04-11T16:40:13.557Z,13.55
2023-04-11T16:42:40.990Z,14.52
2023-04-11T16:45:09.909Z,17.98
2023-04-11T16:47:37.902Z,13.77
2023-04-11T16:50:06.020Z,16.80
2023-04-11T16:52:33.931Z,17.02
2023-04-11T16:55:03.080Z,15.85
2023-04-11T16:57:33.171Z,17.45
2023-04-11T17:00:01.187Z,15.90
2023-04-11T17:02:29.605Z,17.10
2023-04-11T17:04:57.168Z,17.60
2023-04-11T17:07:24.991Z,17.75
2023-04-11T17:09:53.045Z,18.10
2023-04-11T17:12:21.007Z,17.62
2023-04-11T17:14:49.869Z,19.77
2023-04-11T17:17:17.572Z,17.65
2023-04-11T17:19:44.980Z,19.55
2023-04-11T17:22:12.815Z,15.50
2023-04-11T17:24:40.674Z,41.10
2023-04-11T17:27:08.132Z,30.30
2023-04-11T17:29:35.546Z,18.65
2023-04-11T17:32:04.069Z,20.23
2023-04-11T17:34:31.479Z,16.58
2023-04-11T17:36:59.110Z,18.20
2023-04-11T17:39:26.786Z,19.60
2023-04-11T17:41:54.179Z,16.02
2023-04-11T17:44:21.561Z,15.27
2023-04-11T17:46:49.286Z,15.02
2023-04-11T17:49:16.819Z,14.75
2023-04-11T17:51:52.476Z,13.40
2023-04-11T17:54:26.269Z,19.37
2023-04-11T17:56:53.865Z,14.40
2023-04-11T17:59:21.319Z,15.30
2023-04-11T18:01:49.123Z,14.87
2023-04-11T18:04:17.782Z,13.85
2023-04-11T18:06:48.000Z,14.65
2023-04-11T18:09:18.302Z,14.63
2023-04-11T18:11:46.152Z,12.55
2023-04-11T18:14:13.559Z,12.63
2023-04-11T18:16:41.493Z,15.52
2023-04-11T18:19:09.287Z,17.27
2023-04-11T18:21:36.663Z,16.33
2023-04-11T18:24:04.178Z,17.17
2023-04-11T18:26:32.907Z,24.55
2023-04-11T18:29:01.050Z,17.55
2023-04-11T18:31:28.785Z,14.15
2023-04-11T18:33:57.835Z,11.43
2023-04-11T18:36:26.270Z,13.93
2023-04-11T18:38:55.084Z,9.07
2023-04-11T18:41:23.074Z,15.15
2023-04-11T18:43:51.463Z,14.10
2023-04-11T18:46:20.275Z,11.05
2023-04-11T18:48:48.562Z,10.32
2023-04-11T18:51:16.421Z,10.50
2023-04-11T18:53:44.389Z,10.05
2023-04-11T18:56:13.093Z,10.25
2023-04-11T18:58:45.632Z,9.88
2023-04-11T19:01:17.396Z,10.23
2023-04-11T19:03:47.011Z,9.38
2023-04-11T19:06:15.156Z,9.18
2023-04-11T19:08:44.581Z,9.75
2023-04-11T19:11:12.386Z,11.80
2023-04-11T19:13:42.259Z,9.30
2023-04-11T19:16:11.566Z,11.12
2023-04-11T19:18:40.069Z,9.82
2023-04-11T19:21:08.422Z,8.45
2023-04-11T19:23:36.633Z,9.50
2023-04-11T19:26:04.918Z,7.85
2023-04-11T19:28:34.620Z,8.27
2023-04-11T19:31:03.263Z,10.00
2023-04-11T19:33:31.604Z,9.00
2023-04-11T19:36:00.247Z,11.38
2023-04-11T19:38:28.232Z,9.98
2023-04-11T19:40:56.428Z,10.10
2023-04-11T19:43:25.300Z,9.50
2023-04-11T19:45:53.695Z,9.70
2023-04-11T19:48:22.381Z,9.82
2023-04-11T19:50:52.156Z,12.52
2023-04-11T19:53:23.557Z,9.80
2023-04-11T19:55:53.159Z,8.73
2023-04-11T19:58:21.213Z,10.50
2023-04-11T20:00:49.897Z,9.20
2023-04-11T20:03:22.399Z,8.95
2023-04-11T20:05:50.870Z,9.00
2023-04-11T20:08:21.656Z,8.20
2023-04-11T20:10:50.313Z,8.98
2023-04-11T20:13:18.998Z,9.70
2023-04-11T20:15:47.300Z,8.65
2023-04-11T20:18:16.605Z,7.55
2023-04-11T20:20:45.870Z,8.68
2023-04-11T20:23:15.445Z,9.18
2023-04-11T20:25:43.776Z,7.25
2023-04-11T20:28:12.224Z,6.53
2023-04-11T20:30:40.035Z,6.45
2023-04-11T20:33:07.570Z,8.18
2023-04-11T20:35:35.030Z,5.85
2023-04-11T20:38:02.873Z,5.93
2023-04-11T20:40:30.518Z,6.57
2023-04-11T20:43:00.274Z,5.78
2023-04-11T20:45:29.899Z,7.75
2023-04-11T20:47:57.669Z,6.10
2023-04-11T20:50:25.811Z,7.87
2023-04-11T20:52:53.564Z,6.68
2023-04-11T20:55:21.165Z,7.95
2023-04-11T20:57:48.632Z,5.47
2023-04-11T21:00:20.002Z,5.72
2023-04-11T21:02:49.951Z,5.00
2023-04-11T21:05:20.901Z,6.05
2023-04-11T21:07:48.309Z,5.45
2023-04-11T21:10:16.248Z,7.68
2023-04-11T21:12:51.060Z,4.95
2023-04-11T21:15:19.871Z,4.82
2023-04-11T21:17:47.738Z,5.32
2023-04-11T21:20:18.316Z,4.57
2023-04-11T21:22:50.570Z,4.93
2023-04-11T21:25:18.603Z,4.25
2023-04-11T21:27:46.274Z,5.00
2023-04-11T21:30:15.051Z,4.45
2023-04-11T21:32:42.876Z,4.47
2023-04-11T21:35:11.438Z,4.75
2023-04-11T21:37:38.948Z,3.72
2023-04-11T21:40:07.391Z,4.95
2023-04-11T21:42:38.029Z,5.90
2023-04-11T21:45:05.802Z,5.28
2023-04-11T21:47:33.998Z,6.82
2023-04-11T21:50:01.442Z,4.62
2023-04-11T21:52:28.987Z,4.72
2023-04-11T21:54:56.830Z,5.20
2023-04-11T21:57:24.272Z,7.62
2023-04-11T21:59:51.863Z,6.00
2023-04-11T22:02:19.868Z,5.32
2023-04-11T22:05:01.629Z,6.43
2023-04-11T22:07:48.518Z,6.87
2023-04-11T22:10:22.146Z,5.78
2023-04-11T22:12:49.799Z,5.78
2023-04-11T22:15:18.574Z,5.68
2023-04-11T22:17:50.482Z,6.07
2023-04-11T22:20:19.513Z,7.50
2023-04-11T22:22:48.104Z,6.60
2023-04-11T22:25:18.206Z,6.37
2023-04-11T22:27:45.933Z,7.90
2023-04-11T22:30:14.699Z,6.20
2023-04-11T22:32:42.177Z,6.93
2023-04-11T22:35:10.380Z,5.15
2023-04-11T22:37:37.818Z,6.32
2023-04-11T22:40:06.249Z,7.05
2023-04-11T22:42:34.089Z,4.82
2023-04-11T22:45:01.468Z,5.10
2023-04-11T22:47:28.979Z,5.18
2023-04-11T22:49:57.892Z,5.70
2023-04-11T22:52:26.350Z,6.12
2023-04-11T22:54:55.005Z,5.10
2023-04-11T22:57:22.666Z,4.93
2023-04-11T22:59:51.358Z,5.43
2023-04-11T23:02:19.175Z,6.07
2023-04-11T23:04:46.893Z,5.40
2023-04-11T23:07:14.280Z,5.07
2023-04-11T23:09:44.894Z,6.28
2023-04-11T23:12:12.888Z,5.57
2023-04-11T23:14:40.322Z,7.22
2023-04-11T23:17:07.695Z,7.43
2023-04-11T23:19:36.987Z,5.12
2023-04-11T23:22:04.918Z,5.82
2023-04-11T23:24:32.236Z,7.25
2023-04-11T23:26:59.942Z,5.60
2023-04-11T23:29:27.479Z,8.23
2023-04-11T23:31:54.939Z,6.35
2023-04-11T23:34:22.622Z,7.37
2023-04-11T23:36:49.993Z,5.93
2023-04-11T23:39:17.837Z,5.55
2023-04-11T23:41:45.742Z,7.28
2023-04-11T23:44:13.865Z,7.15
2023-04-11T23:46:41.412Z,7.45
2023-04-11T23:49:09.031Z,8.75
2023-04-11T23:51:36.359Z,6.85
2023-04-11T23:54:04.242Z,5.32
2023-04-11T23:56:32.420Z,6.72
2023-04-11T23:58:59.777Z,7.55
